createdAt,value
2023-01-19T00:00:24.710Z,37.10
2023-01-19T00:03:16.349Z,33.72
2023-01-19T00:05:47.522Z,33.17
2023-01-19T00:08:17.572Z,37.78
2023-01-19T00:10:48.490Z,42.20
2023-01-19T00:13:18.154Z,46.35
2023-01-19T00:15:47.629Z,39.13
2023-01-19T00:18:17.151Z,35.63
2023-01-19T00:20:49.156Z,33.47
2023-01-19T00:23:18.644Z,35.95
2023-01-19T00:25:49.235Z,28.23
2023-01-19T00:28:20.185Z,23.30
2023-01-19T00:30:51.487Z,20.45
2023-01-19T00:33:21.116Z,20.63
2023-01-19T00:35:54.984Z,22.60
2023-01-19T00:38:24.711Z,19.20
2023-01-19T00:40:54.171Z,20.42
2023-01-19T00:43:23.795Z,21.63
2023-01-19T00:45:53.601Z,19.90
2023-01-19T00:48:23.256Z,25.52
2023-01-19T00:50:53.875Z,27.63
2023-01-19T00:53:23.271Z,25.63
2023-01-19T00:55:52.388Z,20.30
2023-01-19T00:58:22.708Z,20.92
2023-01-19T01:00:54.272Z,24.88
2023-01-19T01:03:28.262Z,23.98
2023-01-19T01:05:58.987Z,37.55
2023-01-19T01:08:28.646Z,39.03
2023-01-19T01:10:58.275Z,26.17
2023-01-19T01:13:28.461Z,19.88
2023-01-19T01:15:58.701Z,19.00
2023-01-19T01:18:28.396Z,19.02
2023-01-19T01:21:04.261Z,15.77
2023-01-19T01:23:33.862Z,20.70
2023-01-19T01:26:03.265Z,18.45
2023-01-19T01:28:33.624Z,17.23
2023-01-19T01:31:02.995Z,18.98
2023-01-19T01:33:40.939Z,21.85
2023-01-19T01:36:12.830Z,20.70
2023-01-19T01:38:42.788Z,21.27
2023-01-19T01:41:12.908Z,23.80
2023-01-19T01:43:50.984Z,22.83
2023-01-19T01:46:20.428Z,18.65
2023-01-19T01:48:55.991Z,28.77
2023-01-19T01:51:30.947Z,21.90
2023-01-19T01:54:12.844Z,18.35
2023-01-19T01:56:45.315Z,21.55
2023-01-19T01:59:25.850Z,24.42
2023-01-19T02:02:15.754Z,21.08
2023-01-19T02:04:50.802Z,22.50
2023-01-19T02:07:47.902Z,25.38
2023-01-19T02:10:36.609Z,20.52
2023-01-19T02:13:19.942Z,18.50
2023-01-19T02:15:52.631Z,18.38
2023-01-19T02:18:23.143Z,16.15
2023-01-19T02:21:09.531Z,20.23
2023-01-19T02:26:14.741Z,17.05
2023-01-19T02:28:48.375Z,14.32
2023-01-19T02:31:18.232Z,17.05
2023-01-19T02:33:47.561Z,19.30
2023-01-19T02:36:22.447Z,16.83
2023-01-19T02:38:56.368Z,22.42
2023-01-19T02:41:31.065Z,15.98
2023-01-19T02:44:02.373Z,16.02
2023-01-19T02:46:31.850Z,18.52
2023-01-19T02:49:01.752Z,17.23
2023-01-19T02:51:31.487Z,15.27
2023-01-19T02:54:29.180Z,19.00
2023-01-19T02:57:25.607Z,16.48
2023-01-19T03:00:09.793Z,17.05
2023-01-19T03:02:51.177Z,19.27
2023-01-19T03:05:35.491Z,15.65
2023-01-19T03:08:16.240Z,23.23
2023-01-19T03:10:55.175Z,13.02
2023-01-19T03:13:32.703Z,13.82
2023-01-19T03:16:12.163Z,17.20
2023-01-19T03:18:45.257Z,13.13
2023-01-19T03:21:17.391Z,14.40
2023-01-19T03:23:48.977Z,12.77
2023-01-19T03:26:24.423Z,11.75
2023-01-19T03:28:55.583Z,15.73
2023-01-19T03:36:26.745Z,15.85
2023-01-19T03:38:59.237Z,12.48
2023-01-19T03:41:32.514Z,15.07
2023-01-19T03:44:02.801Z,14.75
2023-01-19T03:46:34.010Z,14.65
2023-01-19T03:49:03.337Z,16.70
2023-01-19T03:51:36.626Z,17.20
2023-01-19T03:54:06.704Z,17.88
2023-01-19T03:56:37.955Z,12.00
2023-01-19T03:59:07.453Z,16.67
2023-01-19T04:01:36.959Z,14.57
2023-01-19T04:04:06.211Z,11.25
2023-01-19T04:06:35.890Z,10.60
2023-01-19T04:09:05.166Z,13.30
2023-01-19T04:11:36.217Z,14.50
2023-01-19T04:14:05.958Z,11.65
2023-01-19T04:16:35.589Z,11.10
2023-01-19T04:19:04.815Z,13.93
2023-01-19T04:21:35.013Z,14.85
2023-01-19T04:24:04.238Z,11.75
2023-01-19T04:26:33.758Z,12.23
2023-01-19T04:29:04.545Z,17.35
2023-01-19T04:31:35.673Z,14.55
2023-01-19T04:34:05.277Z,16.08
2023-01-19T04:36:34.834Z,13.13
2023-01-19T04:39:05.072Z,18.58
2023-01-19T04:41:34.619Z,15.40
2023-01-19T04:44:06.023Z,18.55
2023-01-19T04:46:35.481Z,17.77
2023-01-19T04:49:04.633Z,14.40
2023-01-19T04:51:34.387Z,16.42
2023-01-19T04:54:04.088Z,16.60
2023-01-19T04:56:33.580Z,16.80
2023-01-19T04:59:04.427Z,17.15
2023-01-19T05:01:34.119Z,17.05
2023-01-19T05:04:05.193Z,22.17
2023-01-19T05:06:35.365Z,17.48
2023-01-19T05:09:07.936Z,17.13
2023-01-19T05:11:37.631Z,17.35
2023-01-19T05:14:08.284Z,25.02
2023-01-19T05:16:37.912Z,28.98
2023-01-19T05:19:07.296Z,36.20
2023-01-19T05:21:37.115Z,37.97
2023-01-19T05:24:06.728Z,39.22
2023-01-19T05:26:36.279Z,38.50
2023-01-19T05:29:05.458Z,41.53
2023-01-19T05:31:37.202Z,37.10
2023-01-19T05:34:07.152Z,41.28
2023-01-19T05:36:36.897Z,32.80
2023-01-19T05:39:06.240Z,33.72
2023-01-19T05:41:35.724Z,34.17
2023-01-19T05:44:05.410Z,34.78
2023-01-19T05:46:36.922Z,41.47
2023-01-19T05:49:07.398Z,30.23
2023-01-19T05:51:38.674Z,37.08
2023-01-19T05:54:08.890Z,48.45
2023-01-19T05:56:39.442Z,41.72
2023-01-19T05:59:08.838Z,39.83
2023-01-19T06:01:40.311Z,35.03
2023-01-19T06:04:09.861Z,33.85
2023-01-19T06:06:39.287Z,31.25
2023-01-19T06:09:08.520Z,41.58
2023-01-19T06:11:38.077Z,44.15
2023-01-19T06:14:07.303Z,38.90
2023-01-19T06:16:39.923Z,44.88
2023-01-19T06:19:09.098Z,41.70
2023-01-19T06:21:39.700Z,48.30
2023-01-19T06:24:09.089Z,40.50
2023-01-19T06:26:38.792Z,29.75
2023-01-19T06:29:09.924Z,31.98
2023-01-19T06:31:40.915Z,39.25
2023-01-19T06:34:11.529Z,32.85
2023-01-19T06:36:41.414Z,41.22
2023-01-19T06:39:11.411Z,37.90
2023-01-19T06:41:41.579Z,40.85
2023-01-19T06:44:10.907Z,29.58
2023-01-19T06:46:41.847Z,26.92
2023-01-19T06:49:11.256Z,24.98
2023-01-19T06:51:40.764Z,26.33
2023-01-19T06:54:10.257Z,30.35
2023-01-19T06:56:39.718Z,30.60
2023-01-19T06:59:09.934Z,32.85
2023-01-19T07:01:40.979Z,30.48
2023-01-19T07:04:14.080Z,31.67
2023-01-19T07:06:43.543Z,33.53
2023-01-19T07:09:14.606Z,32.53
2023-01-19T07:11:45.042Z,45.38
2023-01-19T07:14:14.366Z,52.65
2023-01-19T07:16:45.349Z,47.38
2023-01-19T07:19:15.407Z,48.20
2023-01-19T07:21:44.857Z,49.53
2023-01-19T07:24:14.379Z,46.28
2023-01-19T07:26:43.937Z,41.47
2023-01-19T07:29:13.153Z,38.78
2023-01-19T07:31:44.232Z,37.05
2023-01-19T07:34:13.475Z,50.50
2023-01-19T07:36:44.240Z,50.55
2023-01-19T07:39:13.592Z,64.15
2023-01-19T07:41:43.069Z,58.33
2023-01-19T07:44:12.420Z,58.72
2023-01-19T07:46:42.138Z,46.53
2023-01-19T07:49:12.938Z,53.13
2023-01-19T07:51:42.548Z,45.97
2023-01-19T07:54:11.938Z,47.97
2023-01-19T07:56:41.514Z,43.40
2023-01-19T07:59:11.562Z,41.50
2023-01-19T08:01:41.402Z,45.65
2023-01-19T08:04:13.911Z,46.08
2023-01-19T08:06:47.958Z,46.65
2023-01-19T08:09:18.227Z,42.67
2023-01-19T08:11:48.222Z,46.55
2023-01-19T08:14:20.707Z,40.75
2023-01-19T08:16:50.639Z,40.17
2023-01-19T08:19:21.536Z,47.80
2023-01-19T08:21:51.053Z,47.67
2023-01-19T08:24:23.818Z,38.47
2023-01-19T08:26:59.283Z,40.17
2023-01-19T08:29:30.788Z,41.78
2023-01-19T08:32:03.140Z,37.97
2023-01-19T08:34:33.932Z,38.10
2023-01-19T08:37:03.474Z,34.75
2023-01-19T08:39:32.773Z,35.97
2023-01-19T08:42:02.553Z,36.28
2023-01-19T08:44:31.880Z,40.17
2023-01-19T08:47:01.793Z,38.67
2023-01-19T08:49:32.938Z,33.78
2023-01-19T08:52:03.105Z,39.80
2023-01-19T08:54:32.330Z,39.90
2023-01-19T08:57:02.062Z,38.88
2023-01-19T08:59:31.378Z,43.85
2023-01-19T09:02:01.050Z,43.95
2023-01-19T09:04:30.354Z,39.35
2023-01-19T09:07:01.314Z,44.30
2023-01-19T09:09:30.660Z,40.83
2023-01-19T09:12:00.354Z,34.30
2023-01-19T09:14:29.744Z,34.17
2023-01-19T09:16:59.861Z,34.95
2023-01-19T09:19:29.233Z,35.92
2023-01-19T09:22:00.656Z,37.13
2023-01-19T09:24:30.089Z,37.35
2023-01-19T09:26:59.692Z,39.00
2023-01-19T09:29:29.110Z,40.20
2023-01-19T09:31:58.867Z,38.22
2023-01-19T09:34:28.205Z,48.75
2023-01-19T09:37:03.779Z,57.38
2023-01-19T09:39:33.058Z,59.33
2023-01-19T09:42:09.517Z,47.92
2023-01-19T09:44:39.045Z,46.15
2023-01-19T09:47:17.664Z,53.35
2023-01-19T09:49:53.831Z,53.55
2023-01-19T09:52:24.871Z,54.60
2023-01-19T09:54:56.751Z,58.28
2023-01-19T09:57:28.073Z,47.80
2023-01-19T09:59:59.819Z,42.38
2023-01-19T10:02:37.660Z,36.03
2023-01-19T10:05:20.405Z,29.27
2023-01-19T10:08:08.692Z,26.65
2023-01-19T10:10:42.351Z,27.08
2023-01-19T10:13:30.831Z,31.05
2023-01-19T10:16:14.417Z,25.15
2023-01-19T10:18:47.834Z,29.00
2023-01-19T10:21:21.756Z,30.90
2023-01-19T10:23:56.306Z,26.55
2023-01-19T10:26:28.203Z,26.52
2023-01-19T10:29:03.544Z,28.60
2023-01-19T10:31:35.605Z,29.02
2023-01-19T10:34:06.016Z,25.75
2023-01-19T10:36:38.177Z,26.13
2023-01-19T10:39:09.416Z,28.58
2023-01-19T10:41:44.050Z,28.10
2023-01-19T10:44:13.667Z,25.50
2023-01-19T10:46:46.019Z,25.73
2023-01-19T10:49:27.030Z,25.45
2023-01-19T10:51:57.533Z,23.35
2023-01-19T10:54:31.052Z,29.10
2023-01-19T10:57:05.222Z,22.08
2023-01-19T10:59:38.174Z,23.23
2023-01-19T11:02:20.253Z,23.50
2023-01-19T11:04:53.165Z,22.67
2023-01-19T11:07:24.875Z,22.23
2023-01-19T11:10:22.003Z,22.17
2023-01-19T11:13:03.268Z,19.40
2023-01-19T11:15:41.984Z,24.20
2023-01-19T11:18:24.351Z,21.95
2023-01-19T11:20:55.609Z,20.40
2023-01-19T11:23:29.316Z,22.80
2023-01-19T11:26:02.857Z,19.67
2023-01-19T11:28:34.540Z,19.23
2023-01-19T11:31:18.493Z,15.88
2023-01-19T11:33:52.603Z,15.65
2023-01-19T11:36:23.322Z,15.50
2023-01-19T11:38:54.510Z,16.73
2023-01-19T11:41:29.716Z,16.42
2023-01-19T11:44:04.044Z,17.60
2023-01-19T11:46:35.364Z,22.67
2023-01-19T11:49:07.127Z,25.83
2023-01-19T11:51:45.662Z,24.30
2023-01-19T11:54:23.823Z,23.20
2023-01-19T11:56:59.814Z,23.85
2023-01-19T11:59:29.633Z,20.27
2023-01-19T12:02:04.083Z,20.35
2023-01-19T12:04:37.652Z,18.90
2023-01-19T12:07:10.761Z,20.85
2023-01-19T12:09:46.448Z,16.90
2023-01-19T12:12:26.771Z,17.83
2023-01-19T12:15:01.640Z,13.93
2023-01-19T12:17:35.375Z,16.52
2023-01-19T12:20:15.099Z,13.65
2023-01-19T12:22:51.798Z,16.25
2023-01-19T12:25:27.532Z,13.63
2023-01-19T12:28:00.336Z,13.95
2023-01-19T12:30:31.463Z,14.13
2023-01-19T12:33:23.556Z,11.63
2023-01-19T12:35:57.518Z,13.98
2023-01-19T12:38:41.769Z,15.57
2023-01-19T12:41:26.590Z,13.23
2023-01-19T12:46:48.122Z,12.18
2023-01-19T12:49:28.051Z,11.35
2023-01-19T12:52:15.431Z,14.38
2023-01-19T12:54:51.700Z,16.23
2023-01-19T12:57:25.220Z,11.90
2023-01-19T13:00:02.208Z,13.68
2023-01-19T13:02:54.900Z,14.13
2023-01-19T13:05:53.607Z,11.45
2023-01-19T13:08:28.653Z,14.00
2023-01-19T13:14:22.596Z,15.88
2023-01-19T13:17:03.369Z,15.73
2023-01-19T13:20:08.914Z,29.38
2023-01-19T13:23:15.490Z,43.00
2023-01-19T13:25:48.425Z,46.05
2023-01-19T13:28:20.872Z,38.28
2023-01-19T13:30:59.344Z,38.42
2023-01-19T13:33:35.422Z,32.55
2023-01-19T13:38:44.555Z,25.45
2023-01-19T13:41:19.475Z,26.08
2023-01-19T13:43:51.278Z,26.92
2023-01-19T13:46:21.424Z,26.35
2023-01-19T13:48:58.076Z,26.02
2023-01-19T13:51:28.750Z,22.05
2023-01-19T13:53:59.482Z,19.40
2023-01-19T13:56:29.812Z,24.45
2023-01-19T13:59:01.266Z,22.85
2023-01-19T14:01:32.229Z,24.58
2023-01-19T14:04:02.111Z,25.83
2023-01-19T14:06:39.933Z,30.10
2023-01-19T14:09:20.521Z,31.15
2023-01-19T14:12:06.775Z,28.73
2023-01-19T14:14:36.462Z,26.20
2023-01-19T14:17:06.046Z,29.75
2023-01-19T14:19:49.776Z,32.53
2023-01-19T14:22:20.789Z,30.80
2023-01-19T14:24:50.502Z,34.15
2023-01-19T14:27:24.318Z,29.65
2023-01-19T14:29:54.982Z,36.30
2023-01-19T14:32:27.808Z,35.97
2023-01-19T14:35:15.777Z,42.53
2023-01-19T14:37:51.412Z,35.38
2023-01-19T14:40:24.615Z,38.40
2023-01-19T14:42:57.409Z,47.55
2023-01-19T14:45:32.360Z,39.85
2023-01-19T14:48:03.993Z,39.63
2023-01-19T14:50:37.309Z,35.85
2023-01-19T14:53:09.693Z,39.55
2023-01-19T14:55:48.052Z,40.13
2023-01-19T14:58:19.494Z,34.40
2023-01-19T15:00:50.047Z,34.72
2023-01-19T15:03:19.389Z,45.40
2023-01-19T15:05:49.519Z,48.50
2023-01-19T15:08:26.553Z,39.67
2023-01-19T15:10:56.397Z,42.78
2023-01-19T15:13:28.708Z,45.78
2023-01-19T15:15:59.000Z,37.60
2023-01-19T15:18:28.934Z,51.65
2023-01-19T15:21:02.817Z,48.25
2023-01-19T15:23:34.193Z,42.65
2023-01-19T15:26:06.140Z,48.22
2023-01-19T15:28:35.592Z,53.33
2023-01-19T15:31:06.166Z,71.53
2023-01-19T15:33:35.639Z,56.70
2023-01-19T15:36:05.446Z,79.75
2023-01-19T15:38:36.454Z,84.85
2023-01-19T15:41:10.004Z,76.88
2023-01-19T15:43:39.347Z,75.93
2023-01-19T15:46:10.531Z,102.95
2023-01-19T15:48:40.506Z,116.70
2023-01-19T15:51:14.678Z,104.53
2023-01-19T15:53:45.917Z,92.90
2023-01-19T15:56:17.291Z,97.95
2023-01-19T15:58:47.129Z,94.28
2023-01-19T16:01:18.417Z,107.57
2023-01-19T16:03:48.276Z,146.32
2023-01-19T16:06:18.134Z,106.55
2023-01-19T16:08:48.711Z,94.60
2023-01-19T16:11:18.699Z,107.63
2023-01-19T16:13:48.854Z,109.57
2023-01-19T16:16:20.297Z,107.20
2023-01-19T16:18:50.012Z,96.70
2023-01-19T16:21:20.208Z,88.43
2023-01-19T16:23:51.180Z,92.38
2023-01-19T16:26:38.558Z,110.32
2023-01-19T16:29:10.765Z,112.25
2023-01-19T16:31:41.492Z,108.95
2023-01-19T16:34:11.437Z,104.88
2023-01-19T16:36:42.594Z,96.85
2023-01-19T16:39:17.715Z,103.82
2023-01-19T16:41:47.854Z,133.52
2023-01-19T16:44:17.990Z,118.05
2023-01-19T16:46:49.744Z,116.18
2023-01-19T16:49:21.273Z,103.10
2023-01-19T16:51:53.016Z,92.78
2023-01-19T16:54:26.082Z,95.97
2023-01-19T16:56:56.714Z,95.82
2023-01-19T16:59:27.301Z,96.15
2023-01-19T17:01:57.900Z,100.15
2023-01-19T17:04:27.489Z,96.45
2023-01-19T17:06:57.361Z,97.38
2023-01-19T17:09:28.089Z,104.60
2023-01-19T17:11:58.386Z,112.43
2023-01-19T17:14:27.734Z,98.25
2023-01-19T17:16:57.419Z,117.35
2023-01-19T17:19:28.865Z,114.03
2023-01-19T17:21:58.624Z,107.20
2023-01-19T17:24:29.380Z,100.13
2023-01-19T17:26:58.994Z,114.15
2023-01-19T17:29:28.427Z,96.05
2023-01-19T17:31:58.227Z,97.13
2023-01-19T17:34:27.841Z,92.80
2023-01-19T17:37:03.104Z,117.80
2023-01-19T17:39:34.090Z,101.68
2023-01-19T17:42:03.709Z,96.43
2023-01-19T17:44:33.016Z,105.47
2023-01-19T17:47:03.099Z,112.30
2023-01-19T17:49:32.529Z,117.95
2023-01-19T17:52:02.291Z,100.93
2023-01-19T17:54:33.168Z,105.72
2023-01-19T17:57:02.856Z,105.70
2023-01-19T17:59:32.678Z,96.20
2023-01-19T18:02:02.448Z,90.20
2023-01-19T18:04:32.309Z,89.82
2023-01-19T18:07:02.074Z,100.30
2023-01-19T18:09:32.847Z,103.80
2023-01-19T18:12:02.379Z,109.55
2023-01-19T18:14:31.568Z,111.20
2023-01-19T18:17:01.275Z,102.85
2023-01-19T18:19:30.617Z,88.82
2023-01-19T18:22:00.209Z,89.55
2023-01-19T18:24:30.144Z,70.65
2023-01-19T18:27:01.168Z,79.63
2023-01-19T18:29:30.422Z,92.82
2023-01-19T18:31:59.938Z,73.30
2023-01-19T18:34:29.392Z,79.80
2023-01-19T18:36:58.891Z,89.32
2023-01-19T18:39:30.299Z,74.00
2023-01-19T18:42:01.549Z,74.18
2023-01-19T18:44:30.908Z,74.88
2023-01-19T18:47:00.661Z,75.75
2023-01-19T18:49:30.272Z,79.20
2023-01-19T18:52:00.503Z,80.82
2023-01-19T18:54:32.190Z,86.40
2023-01-19T18:57:03.087Z,94.03
2023-01-19T18:59:32.423Z,105.82
2023-01-19T19:02:02.257Z,109.78
2023-01-19T19:04:31.346Z,117.82
2023-01-19T19:07:00.967Z,127.30
2023-01-19T19:09:30.385Z,130.23
2023-01-19T19:12:00.058Z,134.38
2023-01-19T19:14:30.596Z,140.77
2023-01-19T19:17:00.232Z,129.30
2023-01-19T19:19:29.789Z,133.55
2023-01-19T19:21:59.484Z,137.23
2023-01-19T19:24:28.970Z,128.00
2023-01-19T19:26:58.844Z,153.95
2023-01-19T19:29:29.782Z,135.82
2023-01-19T19:31:59.296Z,141.48
2023-01-19T19:34:29.293Z,147.82
2023-01-19T19:37:01.048Z,125.72
2023-01-19T19:39:30.762Z,124.30
2023-01-19T19:42:00.278Z,116.82
2023-01-19T19:44:31.091Z,128.45
2023-01-19T19:47:00.800Z,139.30
2023-01-19T19:49:30.187Z,105.93
2023-01-19T19:51:59.883Z,118.63
2023-01-19T19:54:29.270Z,132.43
2023-01-19T19:56:59.004Z,117.47
2023-01-19T19:59:32.015Z,103.18
2023-01-19T20:02:01.807Z,112.80
2023-01-19T20:04:31.364Z,105.57
2023-01-19T20:07:01.272Z,114.55
2023-01-19T20:09:32.925Z,137.00
2023-01-19T20:12:02.802Z,119.97
2023-01-19T20:14:34.267Z,126.38
2023-01-19T20:17:05.762Z,117.95
2023-01-19T20:19:34.994Z,106.22
2023-01-19T20:22:04.920Z,105.85
2023-01-19T20:24:34.279Z,123.53
2023-01-19T20:27:04.012Z,114.35
2023-01-19T20:29:34.970Z,104.90
2023-01-19T20:32:04.985Z,110.82
2023-01-19T20:34:35.701Z,113.07
2023-01-19T20:37:06.181Z,100.40
2023-01-19T20:39:36.824Z,95.80
2023-01-19T20:42:10.967Z,95.38
2023-01-19T20:44:42.539Z,113.88
2023-01-19T20:47:12.358Z,121.32
2023-01-19T20:49:42.171Z,114.85
2023-01-19T20:52:11.983Z,122.55
2023-01-19T20:54:41.363Z,114.13
2023-01-19T20:57:11.156Z,103.47
2023-01-19T20:59:42.013Z,111.97
2023-01-19T21:02:15.209Z,108.45
2023-01-19T21:04:44.953Z,113.20
2023-01-19T21:07:14.543Z,131.13
2023-01-19T21:09:44.018Z,115.40
2023-01-19T21:12:15.316Z,124.93
2023-01-19T21:14:46.103Z,115.35
2023-01-19T21:17:15.788Z,117.55
2023-01-19T21:19:45.088Z,93.22
2023-01-19T21:22:14.915Z,102.05
2023-01-19T21:24:44.625Z,82.50
2023-01-19T21:27:14.116Z,76.32
2023-01-19T21:29:44.660Z,49.35
2023-01-19T21:32:14.259Z,45.42
2023-01-19T21:34:45.579Z,51.80
2023-01-19T21:37:15.356Z,48.25
2023-01-19T21:39:44.675Z,50.22
2023-01-19T21:42:14.623Z,53.55
2023-01-19T21:44:45.518Z,42.20
2023-01-19T21:47:15.120Z,46.35
2023-01-19T21:49:44.348Z,44.95
2023-01-19T21:52:14.057Z,54.50
2023-01-19T21:54:43.468Z,40.42
2023-01-19T21:57:15.264Z,42.22
2023-01-19T21:59:45.853Z,41.20
2023-01-19T22:02:21.563Z,45.40
2023-01-19T22:04:56.100Z,46.03
2023-01-19T22:07:25.625Z,42.20
2023-01-19T22:09:54.924Z,40.60
2023-01-19T22:12:24.556Z,45.50
2023-01-19T22:14:55.417Z,44.85
2023-01-19T22:17:24.988Z,49.75
2023-01-19T22:19:54.396Z,41.78
2023-01-19T22:22:23.913Z,45.22
2023-01-19T22:25:08.922Z,51.33
2023-01-19T22:27:38.861Z,38.75
2023-01-19T22:30:10.973Z,37.13
2023-01-19T22:32:40.602Z,33.35
2023-01-19T22:35:10.377Z,34.33
2023-01-19T22:37:40.134Z,31.00
2023-01-19T22:40:10.579Z,30.75
2023-01-19T22:42:40.095Z,36.53
2023-01-19T22:45:11.845Z,35.90
2023-01-19T22:47:41.969Z,29.55
2023-01-19T22:50:11.888Z,32.15
2023-01-19T22:52:42.486Z,27.05
2023-01-19T22:55:12.397Z,28.23
2023-01-19T22:57:42.327Z,32.17
2023-01-19T23:00:14.574Z,27.80
2023-01-19T23:02:44.135Z,29.95
2023-01-19T23:05:13.640Z,37.70
2023-01-19T23:07:43.735Z,31.13
2023-01-19T23:10:13.517Z,27.15
2023-01-19T23:12:43.251Z,29.35
2023-01-19T23:15:14.484Z,25.75
2023-01-19T23:17:47.350Z,25.83
2023-01-19T23:20:17.504Z,27.20
2023-01-19T23:22:46.992Z,25.35
2023-01-19T23:25:16.491Z,24.58
2023-01-19T23:27:46.109Z,22.35
2023-01-19T23:30:17.630Z,23.65
2023-01-19T23:32:50.774Z,19.48
2023-01-19T23:35:20.162Z,23.70
2023-01-19T23:37:49.918Z,19.75
2023-01-19T23:40:19.818Z,22.98
2023-01-19T23:42:49.733Z,18.08
2023-01-19T23:45:20.466Z,21.58
2023-01-19T23:47:49.899Z,20.42
2023-01-19T23:50:19.607Z,23.40
2023-01-19T23:52:49.241Z,21.40
2023-01-19T23:55:18.507Z,23.88
2023-01-19T23:57:48.179Z,22.13
